sensor_id;sensor_type;location;lat;lon;timestamp;P1;durP1;ratioP1;P2;durP2;ratioP2
31906;SDS011;18455;50.858;13.662;2023-07-30T00:01:38;2.28;;;2.00;;
31906;SDS011;18455;50.858;13.662;2023-07-30T00:06:38;4.80;;;2.20;;
31906;SDS011;18455;50.858;13.662;2023-07-30T00:11:38;3.55;;;1.98;;
31906;SDS011;18455;50.858;13.662;2023-07-30T00:16:39;3.17;;;2.20;;
31906;SDS011;18455;50.858;13.662;2023-07-30T00:21:39;7.43;;;2.45;;
31906;SDS011;18455;50.858;13.662;2023-07-30T00:26:39;2.30;;;2.10;;
31906;SDS011;18455;50.858;13.662;2023-07-30T00:31:40;2.55;;;2.35;;
31906;SDS011;18455;50.858;13.662;2023-07-30T00:36:40;3.92;;;2.70;;
31906;SDS011;18455;50.858;13.662;2023-07-30T00:41:41;5.28;;;2.53;;
31906;SDS011;18455;50.858;13.662;2023-07-30T00:46:41;3.55;;;2.10;;
31906;SDS011;18455;50.858;13.662;2023-07-30T00:51:42;3.90;;;2.92;;
31906;SDS011;18455;50.858;13.662;2023-07-30T00:56:44;2.58;;;1.98;;
31906;SDS011;18455;50.858;13.662;2023-07-30T01:01:49;3.45;;;2.17;;
31906;SDS011;18455;50.858;13.662;2023-07-30T01:06:51;5.05;;;1.85;;
31906;SDS011;18455;50.858;13.662;2023-07-30T01:11:51;2.47;;;2.28;;
31906;SDS011;18455;50.858;13.662;2023-07-30T01:16:53;3.15;;;2.85;;
31906;SDS011;18455;50.858;13.662;2023-07-30T01:21:54;3.53;;;2.55;;
31906;SDS011;18455;50.858;13.662;2023-07-30T01:27:05;2.38;;;2.17;;
31906;SDS011;18455;50.858;13.662;2023-07-30T01:32:07;2.97;;;2.15;;
31906;SDS011;18455;50.858;13.662;2023-07-30T01:37:09;2.60;;;2.40;;
31906;SDS011;18455;50.858;13.662;2023-07-30T01:42:12;6.38;;;2.65;;
31906;SDS011;18455;50.858;13.662;2023-07-30T01:47:12;7.20;;;2.33;;
31906;SDS011;18455;50.858;13.662;2023-07-30T01:52:13;4.40;;;2.60;;
31906;SDS011;18455;50.858;13.662;2023-07-30T01:57:13;2.78;;;2.47;;
31906;SDS011;18455;50.858;13.662;2023-07-30T02:02:13;4.25;;;2.50;;
31906;SDS011;18455;50.858;13.662;2023-07-30T02:07:14;2.80;;;2.40;;
31906;SDS011;18455;50.858;13.662;2023-07-30T02:12:14;5.13;;;2.28;;
31906;SDS011;18455;50.858;13.662;2023-07-30T02:17:15;4.35;;;2.47;;
31906;SDS011;18455;50.858;13.662;2023-07-30T02:22:15;2.85;;;2.60;;
31906;SDS011;18455;50.858;13.662;2023-07-30T02:27:16;2.65;;;2.40;;
31906;SDS011;18455;50.858;13.662;2023-07-30T02:32:16;3.63;;;2.28;;
31906;SDS011;18455;50.858;13.662;2023-07-30T02:37:17;2.35;;;2.03;;
31906;SDS011;18455;50.858;13.662;2023-07-30T02:42:17;5.28;;;2.70;;
31906;SDS011;18455;50.858;13.662;2023-07-30T02:47:17;3.08;;;2.13;;
31906;SDS011;18455;50.858;13.662;2023-07-30T02:52:18;4.25;;;2.33;;
31906;SDS011;18455;50.858;13.662;2023-07-30T02:57:18;3.03;;;1.98;;
31906;SDS011;18455;50.858;13.662;2023-07-30T03:02:18;3.28;;;2.00;;
31906;SDS011;18455;50.858;13.662;2023-07-30T03:07:19;3.05;;;2.30;;
31906;SDS011;18455;50.858;13.662;2023-07-30T03:12:19;2.83;;;2.55;;
31906;SDS011;18455;50.858;13.662;2023-07-30T03:17:20;3.25;;;2.10;;
31906;SDS011;18455;50.858;13.662;2023-07-30T03:22:20;3.60;;;2.38;;
31906;SDS011;18455;50.858;13.662;2023-07-30T03:27:21;3.00;;;2.28;;
31906;SDS011;18455;50.858;13.662;2023-07-30T03:32:22;3.35;;;2.17;;
31906;SDS011;18455;50.858;13.662;2023-07-30T03:37:23;4.63;;;2.17;;
31906;SDS011;18455;50.858;13.662;2023-07-30T03:42:23;2.58;;;2.28;;
31906;SDS011;18455;50.858;13.662;2023-07-30T03:47:23;2.50;;;2.30;;
31906;SDS011;18455;50.858;13.662;2023-07-30T03:52:24;2.70;;;2.28;;
31906;SDS011;18455;50.858;13.662;2023-07-30T03:57:24;5.80;;;2.25;;
31906;SDS011;18455;50.858;13.662;2023-07-30T04:02:24;4.82;;;2.38;;
31906;SDS011;18455;50.858;13.662;2023-07-30T04:07:25;4.70;;;2.10;;
31906;SDS011;18455;50.858;13.662;2023-07-30T04:12:25;3.20;;;2.65;;
31906;SDS011;18455;50.858;13.662;2023-07-30T04:17:27;3.05;;;2.13;;
31906;SDS011;18455;50.858;13.662;2023-07-30T04:22:27;2.33;;;2.13;;
31906;SDS011;18455;50.858;13.662;2023-07-30T04:27:27;2.15;;;2.00;;
31906;SDS011;18455;50.858;13.662;2023-07-30T04:32:28;2.67;;;2.42;;
31906;SDS011;18455;50.858;13.662;2023-07-30T04:37:29;2.63;;;2.20;;
31906;SDS011;18455;50.858;13.662;2023-07-30T04:42:30;3.85;;;2.15;;
31906;SDS011;18455;50.858;13.662;2023-07-30T04:47:30;4.18;;;2.35;;
31906;SDS011;18455;50.858;13.662;2023-07-30T04:52:31;3.97;;;2.00;;
31906;SDS011;18455;50.858;13.662;2023-07-30T04:57:31;3.75;;;2.20;;
31906;SDS011;18455;50.858;13.662;2023-07-30T05:02:32;3.22;;;1.85;;
31906;SDS011;18455;50.858;13.662;2023-07-30T05:07:32;4.72;;;2.33;;
31906;SDS011;18455;50.858;13.662;2023-07-30T05:12:32;2.20;;;1.95;;
31906;SDS011;18455;50.858;13.662;2023-07-30T05:17:33;3.67;;;1.83;;
31906;SDS011;18455;50.858;13.662;2023-07-30T05:22:33;3.15;;;1.85;;
31906;SDS011;18455;50.858;13.662;2023-07-30T05:27:35;2.78;;;1.98;;
31906;SDS011;18455;50.858;13.662;2023-07-30T05:32:36;3.42;;;1.77;;
31906;SDS011;18455;50.858;13.662;2023-07-30T05:37:36;3.80;;;2.10;;
31906;SDS011;18455;50.858;13.662;2023-07-30T05:42:36;3.10;;;1.92;;
31906;SDS011;18455;50.858;13.662;2023-07-30T05:47:37;6.00;;;2.22;;
31906;SDS011;18455;50.858;13.662;2023-07-30T05:52:37;4.85;;;2.40;;
31906;SDS011;18455;50.858;13.662;2023-07-30T05:57:38;2.15;;;1.92;;
31906;SDS011;18455;50.858;13.662;2023-07-30T06:02:38;2.75;;;2.17;;
31906;SDS011;18455;50.858;13.662;2023-07-30T06:07:38;3.45;;;2.05;;
31906;SDS011;18455;50.858;13.662;2023-07-30T06:12:39;3.92;;;2.30;;
31906;SDS011;18455;50.858;13.662;2023-07-30T06:17:39;2.65;;;2.38;;
31906;SDS011;18455;50.858;13.662;2023-07-30T06:22:40;3.45;;;2.03;;
31906;SDS011;18455;50.858;13.662;2023-07-30T06:27:40;4.20;;;2.25;;
31906;SDS011;18455;50.858;13.662;2023-07-30T06:32:40;3.92;;;2.38;;
31906;SDS011;18455;50.858;13.662;2023-07-30T06:37:41;2.80;;;2.33;;
31906;SDS011;18455;50.858;13.662;2023-07-30T06:42:41;2.63;;;2.42;;
31906;SDS011;18455;50.858;13.662;2023-07-30T06:47:41;3.53;;;2.63;;
31906;SDS011;18455;50.858;13.662;2023-07-30T06:52:42;4.18;;;2.67;;
31906;SDS011;18455;50.858;13.662;2023-07-30T06:57:42;6.82;;;2.50;;
31906;SDS011;18455;50.858;13.662;2023-07-30T07:02:43;3.22;;;2.92;;
31906;SDS011;18455;50.858;13.662;2023-07-30T07:07:43;2.80;;;2.20;;
31906;SDS011;18455;50.858;13.662;2023-07-30T07:12:43;5.30;;;2.38;;
31906;SDS011;18455;50.858;13.662;2023-07-30T07:17:44;4.25;;;2.60;;
31906;SDS011;18455;50.858;13.662;2023-07-30T07:22:44;5.85;;;2.15;;
31906;SDS011;18455;50.858;13.662;2023-07-30T07:27:45;5.30;;;2.58;;
31906;SDS011;18455;50.858;13.662;2023-07-30T07:32:45;2.95;;;2.40;;
31906;SDS011;18455;50.858;13.662;2023-07-30T07:37:50;5.15;;;2.30;;
31906;SDS011;18455;50.858;13.662;2023-07-30T07:42:50;5.57;;;2.20;;
31906;SDS011;18455;50.858;13.662;2023-07-30T07:47:50;3.63;;;2.58;;
31906;SDS011;18455;50.858;13.662;2023-07-30T07:52:51;4.18;;;2.30;;
31906;SDS011;18455;50.858;13.662;2023-07-30T07:57:51;5.72;;;2.10;;
31906;SDS011;18455;50.858;13.662;2023-07-30T08:02:51;6.35;;;2.17;;
31906;SDS011;18455;50.858;13.662;2023-07-30T08:07:52;2.65;;;2.00;;
31906;SDS011;18455;50.858;13.662;2023-07-30T08:12:52;2.40;;;2.00;;
31906;SDS011;18455;50.858;13.662;2023-07-30T08:17:53;2.95;;;2.22;;
31906;SDS011;18455;50.858;13.662;2023-07-30T08:22:53;3.25;;;2.95;;
31906;SDS011;18455;50.858;13.662;2023-07-30T08:27:53;4.13;;;2.92;;
31906;SDS011;18455;50.858;13.662;2023-07-30T08:32:54;3.95;;;2.90;;
31906;SDS011;18455;50.858;13.662;2023-07-30T08:37:54;3.55;;;2.67;;
31906;SDS011;18455;50.858;13.662;2023-07-30T08:42:54;3.30;;;3.00;;
31906;SDS011;18455;50.858;13.662;2023-07-30T08:47:55;4.80;;;2.70;;
31906;SDS011;18455;50.858;13.662;2023-07-30T08:52:55;2.47;;;2.28;;
31906;SDS011;18455;50.858;13.662;2023-07-30T08:57:57;2.45;;;1.90;;
31906;SDS011;18455;50.858;13.662;2023-07-30T09:02:59;6.88;;;2.33;;
31906;SDS011;18455;50.858;13.662;2023-07-30T09:08:00;4.20;;;1.90;;
31906;SDS011;18455;50.858;13.662;2023-07-30T09:13:01;3.20;;;2.03;;
31906;SDS011;18455;50.858;13.662;2023-07-30T09:18:01;2.00;;;1.80;;
31906;SDS011;18455;50.858;13.662;2023-07-30T09:23:02;2.75;;;2.03;;
31906;SDS011;18455;50.858;13.662;2023-07-30T09:28:02;2.05;;;1.85;;
31906;SDS011;18455;50.858;13.662;2023-07-30T09:33:03;3.78;;;1.92;;
31906;SDS011;18455;50.858;13.662;2023-07-30T09:38:03;2.80;;;2.03;;
31906;SDS011;18455;50.858;13.662;2023-07-30T09:43:04;4.63;;;2.35;;
31906;SDS011;18455;50.858;13.662;2023-07-30T09:48:05;3.20;;;1.80;;
31906;SDS011;18455;50.858;13.662;2023-07-30T09:53:06;3.50;;;2.30;;
31906;SDS011;18455;50.858;13.662;2023-07-30T09:58:07;3.45;;;1.85;;
31906;SDS011;18455;50.858;13.662;2023-07-30T10:03:11;1.70;;;1.55;;
31906;SDS011;18455;50.858;13.662;2023-07-30T10:08:14;1.92;;;1.70;;
31906;SDS011;18455;50.858;13.662;2023-07-30T10:13:17;1.60;;;1.50;;
31906;SDS011;18455;50.858;13.662;2023-07-30T10:18:19;5.10;;;1.63;;
31906;SDS011;18455;50.858;13.662;2023-07-30T10:23:21;2.72;;;1.48;;
31906;SDS011;18455;50.858;13.662;2023-07-30T10:28:32;1.73;;;1.63;;
31906;SDS011;18455;50.858;13.662;2023-07-30T10:33:43;1.77;;;1.67;;
31906;SDS011;18455;50.858;13.662;2023-07-30T10:38:44;2.08;;;1.65;;
31906;SDS011;18455;50.858;13.662;2023-07-30T10:43:48;2.72;;;1.73;;
31906;SDS011;18455;50.858;13.662;2023-07-30T10:48:49;4.47;;;1.88;;
31906;SDS011;18455;50.858;13.662;2023-07-30T10:53:50;4.85;;;2.10;;
31906;SDS011;18455;50.858;13.662;2023-07-30T10:58:52;2.55;;;2.15;;
31906;SDS011;18455;50.858;13.662;2023-07-30T11:03:53;3.58;;;3.28;;
31906;SDS011;18455;50.858;13.662;2023-07-30T11:08:53;2.20;;;1.98;;
31906;SDS011;18455;50.858;13.662;2023-07-30T11:13:53;1.67;;;1.15;;
31906;SDS011;18455;50.858;13.662;2023-07-30T11:18:54;2.38;;;1.40;;
31906;SDS011;18455;50.858;13.662;2023-07-30T11:23:54;1.20;;;1.17;;
31906;SDS011;18455;50.858;13.662;2023-07-30T11:28:55;1.40;;;1.20;;
31906;SDS011;18455;50.858;13.662;2023-07-30T11:33:56;1.25;;;1.10;;
31906;SDS011;18455;50.858;13.662;2023-07-30T11:38:57;1.67;;;1.10;;
31906;SDS011;18455;50.858;13.662;2023-07-30T11:43:57;1.25;;;1.00;;
31906;SDS011;18455;50.858;13.662;2023-07-30T11:49:16;0.80;;;0.80;;
31906;SDS011;18455;50.858;13.662;2023-07-30T11:54:22;0.95;;;0.95;;
31906;SDS011;18455;50.858;13.662;2023-07-30T11:59:25;1.02;;;0.80;;
31906;SDS011;18455;50.858;13.662;2023-07-30T12:04:29;1.25;;;1.15;;
31906;SDS011;18455;50.858;13.662;2023-07-30T12:09:34;1.40;;;1.00;;
31906;SDS011;18455;50.858;13.662;2023-07-30T12:14:44;0.85;;;0.80;;
31906;SDS011;18455;50.858;13.662;2023-07-30T12:19:53;1.23;;;1.17;;
31906;SDS011;18455;50.858;13.662;2023-07-30T12:24:53;0.90;;;0.90;;
31906;SDS011;18455;50.858;13.662;2023-07-30T12:29:54;1.80;;;0.93;;
31906;SDS011;18455;50.858;13.662;2023-07-30T12:34:54;2.53;;;1.10;;
31906;SDS011;18455;50.858;13.662;2023-07-30T12:39:55;3.92;;;1.20;;
31906;SDS011;18455;50.858;13.662;2023-07-30T12:44:55;0.97;;;0.97;;
31906;SDS011;18455;50.858;13.662;2023-07-30T12:49:56;0.90;;;0.90;;
31906;SDS011;18455;50.858;13.662;2023-07-30T12:54:56;1.07;;;0.83;;
31906;SDS011;18455;50.858;13.662;2023-07-30T12:59:56;0.80;;;0.80;;
31906;SDS011;18455;50.858;13.662;2023-07-30T13:04:57;1.08;;;1.00;;
31906;SDS011;18455;50.858;13.662;2023-07-30T13:15:07;0.95;;;0.85;;
31906;SDS011;18455;50.858;13.662;2023-07-30T13:20:08;2.47;;;0.88;;
31906;SDS011;18455;50.858;13.662;2023-07-30T13:25:09;3.00;;;0.90;;
31906;SDS011;18455;50.858;13.662;2023-07-30T13:30:09;0.80;;;0.80;;
31906;SDS011;18455;50.858;13.662;2023-07-30T13:35:10;1.20;;;1.00;;
31906;SDS011;18455;50.858;13.662;2023-07-30T13:40:10;3.13;;;0.90;;
31906;SDS011;18455;50.858;13.662;2023-07-30T13:45:11;1.35;;;0.95;;
31906;SDS011;18455;50.858;13.662;2023-07-30T13:50:11;0.93;;;0.93;;
31906;SDS011;18455;50.858;13.662;2023-07-30T13:55:12;1.00;;;1.00;;
31906;SDS011;18455;50.858;13.662;2023-07-30T14:00:12;1.02;;;0.95;;
31906;SDS011;18455;50.858;13.662;2023-07-30T14:05:13;1.10;;;1.00;;
31906;SDS011;18455;50.858;13.662;2023-07-30T14:10:13;1.10;;;1.00;;
31906;SDS011;18455;50.858;13.662;2023-07-30T14:15:14;1.10;;;1.00;;
31906;SDS011;18455;50.858;13.662;2023-07-30T14:20:15;1.38;;;1.20;;
31906;SDS011;18455;50.858;13.662;2023-07-30T14:25:15;1.50;;;1.23;;
31906;SDS011;18455;50.858;13.662;2023-07-30T14:30:15;1.67;;;1.10;;
31906;SDS011;18455;50.858;13.662;2023-07-30T14:35:17;2.47;;;1.25;;
31906;SDS011;18455;50.858;13.662;2023-07-30T14:40:17;1.20;;;1.10;;
31906;SDS011;18455;50.858;13.662;2023-07-30T14:45:18;1.38;;;1.00;;
31906;SDS011;18455;50.858;13.662;2023-07-30T14:50:18;9.35;;;1.38;;
31906;SDS011;18455;50.858;13.662;2023-07-30T14:55:19;3.30;;;1.30;;
31906;SDS011;18455;50.858;13.662;2023-07-30T15:00:19;1.35;;;1.25;;
31906;SDS011;18455;50.858;13.662;2023-07-30T15:05:20;2.38;;;1.30;;
31906;SDS011;18455;50.858;13.662;2023-07-30T15:10:20;3.25;;;1.20;;
31906;SDS011;18455;50.858;13.662;2023-07-30T15:15:20;3.80;;;1.15;;
31906;SDS011;18455;50.858;13.662;2023-07-30T15:20:21;1.80;;;0.82;;
31906;SDS011;18455;50.858;13.662;2023-07-30T15:25:21;4.22;;;1.23;;
31906;SDS011;18455;50.858;13.662;2023-07-30T15:30:22;1.27;;;0.80;;
31906;SDS011;18455;50.858;13.662;2023-07-30T15:35:22;1.30;;;1.20;;
31906;SDS011;18455;50.858;13.662;2023-07-30T15:40:23;2.58;;;1.17;;
31906;SDS011;18455;50.858;13.662;2023-07-30T15:45:23;3.08;;;1.15;;
31906;SDS011;18455;50.858;13.662;2023-07-30T15:50:24;1.27;;;1.17;;
31906;SDS011;18455;50.858;13.662;2023-07-30T15:55:26;1.10;;;1.00;;
31906;SDS011;18455;50.858;13.662;2023-07-30T16:00:26;1.67;;;1.10;;
31906;SDS011;18455;50.858;13.662;2023-07-30T16:05:27;4.10;;;1.40;;
31906;SDS011;18455;50.858;13.662;2023-07-30T16:10:27;1.67;;;1.15;;
31906;SDS011;18455;50.858;13.662;2023-07-30T16:15:28;1.25;;;1.15;;
31906;SDS011;18455;50.858;13.662;2023-07-30T16:20:28;1.70;;;1.50;;
31906;SDS011;18455;50.858;13.662;2023-07-30T16:25:28;1.90;;;1.60;;
31906;SDS011;18455;50.858;13.662;2023-07-30T16:30:29;5.38;;;1.30;;
31906;SDS011;18455;50.858;13.662;2023-07-30T16:35:29;1.85;;;1.30;;
31906;SDS011;18455;50.858;13.662;2023-07-30T16:40:30;3.10;;;1.05;;
31906;SDS011;18455;50.858;13.662;2023-07-30T16:45:30;1.90;;;1.00;;
31906;SDS011;18455;50.858;13.662;2023-07-30T16:50:31;3.33;;;0.80;;
31906;SDS011;18455;50.858;13.662;2023-07-30T16:55:31;0.57;;;0.57;;
31906;SDS011;18455;50.858;13.662;2023-07-30T17:00:32;0.88;;;0.77;;
31906;SDS011;18455;50.858;13.662;2023-07-30T17:05:33;0.60;;;0.60;;
31906;SDS011;18455;50.858;13.662;2023-07-30T17:10:36;1.92;;;1.13;;
31906;SDS011;18455;50.858;13.662;2023-07-30T17:15:36;0.98;;;0.82;;
31906;SDS011;18455;50.858;13.662;2023-07-30T17:20:37;1.27;;;1.05;;
31906;SDS011;18455;50.858;13.662;2023-07-30T17:25:37;2.85;;;1.10;;
31906;SDS011;18455;50.858;13.662;2023-07-30T17:30:37;4.35;;;1.40;;
31906;SDS011;18455;50.858;13.662;2023-07-30T17:35:38;2.25;;;1.33;;
31906;SDS011;18455;50.858;13.662;2023-07-30T17:40:39;4.00;;;1.45;;
31906;SDS011;18455;50.858;13.662;2023-07-30T17:45:39;2.75;;;1.45;;
31906;SDS011;18455;50.858;13.662;2023-07-30T17:50:39;2.92;;;1.30;;
31906;SDS011;18455;50.858;13.662;2023-07-30T17:55:41;4.03;;;1.40;;
31906;SDS011;18455;50.858;13.662;2023-07-30T18:00:43;2.40;;;1.30;;
31906;SDS011;18455;50.858;13.662;2023-07-30T18:05:44;3.78;;;1.60;;
31906;SDS011;18455;50.858;13.662;2023-07-30T18:10:46;5.18;;;1.67;;
31906;SDS011;18455;50.858;13.662;2023-07-30T18:15:46;2.50;;;1.40;;
31906;SDS011;18455;50.858;13.662;2023-07-30T18:20:47;2.90;;;1.35;;
31906;SDS011;18455;50.858;13.662;2023-07-30T18:25:47;4.35;;;1.60;;
31906;SDS011;18455;50.858;13.662;2023-07-30T18:30:47;3.25;;;1.85;;
31906;SDS011;18455;50.858;13.662;2023-07-30T18:35:48;2.58;;;1.40;;
31906;SDS011;18455;50.858;13.662;2023-07-30T18:40:48;2.00;;;1.50;;
31906;SDS011;18455;50.858;13.662;2023-07-30T18:45:48;1.42;;;1.33;;
31906;SDS011;18455;50.858;13.662;2023-07-30T18:50:49;2.15;;;1.50;;
31906;SDS011;18455;50.858;13.662;2023-07-30T18:55:50;3.67;;;1.73;;
31906;SDS011;18455;50.858;13.662;2023-07-30T19:00:51;3.95;;;1.77;;
31906;SDS011;18455;50.858;13.662;2023-07-30T19:05:53;5.07;;;1.70;;
31906;SDS011;18455;50.858;13.662;2023-07-30T19:10:56;3.00;;;1.55;;
31906;SDS011;18455;50.858;13.662;2023-07-30T19:15:56;2.50;;;1.52;;
31906;SDS011;18455;50.858;13.662;2023-07-30T19:20:57;4.50;;;2.00;;
31906;SDS011;18455;50.858;13.662;2023-07-30T19:25:58;4.85;;;2.25;;
31906;SDS011;18455;50.858;13.662;2023-07-30T19:30:58;3.58;;;2.00;;
31906;SDS011;18455;50.858;13.662;2023-07-30T19:35:58;4.45;;;1.80;;
31906;SDS011;18455;50.858;13.662;2023-07-30T19:40:59;6.80;;;2.25;;
31906;SDS011;18455;50.858;13.662;2023-07-30T19:46:00;5.35;;;2.17;;
31906;SDS011;18455;50.858;13.662;2023-07-30T19:51:01;5.03;;;2.10;;
31906;SDS011;18455;50.858;13.662;2023-07-30T19:56:01;7.05;;;2.75;;
31906;SDS011;18455;50.858;13.662;2023-07-30T20:01:02;6.03;;;2.28;;
31906;SDS011;18455;50.858;13.662;2023-07-30T20:06:03;5.10;;;2.22;;
31906;SDS011;18455;50.858;13.662;2023-07-30T20:11:05;4.25;;;2.38;;
31906;SDS011;18455;50.858;13.662;2023-07-30T20:16:09;4.82;;;2.65;;
31906;SDS011;18455;50.858;13.662;2023-07-30T20:21:11;5.78;;;2.20;;
31906;SDS011;18455;50.858;13.662;2023-07-30T20:26:12;5.18;;;2.10;;
31906;SDS011;18455;50.858;13.662;2023-07-30T20:31:13;8.30;;;2.75;;
31906;SDS011;18455;50.858;13.662;2023-07-30T20:36:13;5.00;;;2.80;;
31906;SDS011;18455;50.858;13.662;2023-07-30T20:41:14;7.45;;;2.00;;
31906;SDS011;18455;50.858;13.662;2023-07-30T20:46:14;5.72;;;2.35;;
31906;SDS011;18455;50.858;13.662;2023-07-30T20:51:15;4.82;;;1.85;;
31906;SDS011;18455;50.858;13.662;2023-07-30T20:56:15;6.40;;;2.30;;
31906;SDS011;18455;50.858;13.662;2023-07-30T21:01:15;3.65;;;1.88;;
31906;SDS011;18455;50.858;13.662;2023-07-30T21:06:16;2.78;;;1.60;;
31906;SDS011;18455;50.858;13.662;2023-07-30T21:11:16;5.53;;;2.38;;
31906;SDS011;18455;50.858;13.662;2023-07-30T21:16:16;5.32;;;1.80;;
31906;SDS011;18455;50.858;13.662;2023-07-30T21:21:17;6.35;;;1.92;;
31906;SDS011;18455;50.858;13.662;2023-07-30T21:26:17;6.65;;;1.90;;
31906;SDS011;18455;50.858;13.662;2023-07-30T21:31:17;7.88;;;2.10;;
31906;SDS011;18455;50.858;13.662;2023-07-30T21:36:18;4.15;;;1.90;;
31906;SDS011;18455;50.858;13.662;2023-07-30T21:41:18;5.22;;;1.98;;
31906;SDS011;18455;50.858;13.662;2023-07-30T21:46:19;7.75;;;2.00;;
31906;SDS011;18455;50.858;13.662;2023-07-30T21:51:19;4.30;;;1.90;;
31906;SDS011;18455;50.858;13.662;2023-07-30T21:56:20;3.58;;;1.80;;
31906;SDS011;18455;50.858;13.662;2023-07-30T22:01:20;4.70;;;1.67;;
31906;SDS011;18455;50.858;13.662;2023-07-30T22:06:20;2.83;;;1.25;;
31906;SDS011;18455;50.858;13.662;2023-07-30T22:11:21;2.78;;;1.50;;
31906;SDS011;18455;50.858;13.662;2023-07-30T22:16:21;4.50;;;1.58;;
31906;SDS011;18455;50.858;13.662;2023-07-30T22:21:21;5.68;;;1.55;;
31906;SDS011;18455;50.858;13.662;2023-07-30T22:26:22;4.35;;;1.90;;
31906;SDS011;18455;50.858;13.662;2023-07-30T22:31:22;4.55;;;1.60;;
31906;SDS011;18455;50.858;13.662;2023-07-30T22:36:22;5.70;;;1.75;;
31906;SDS011;18455;50.858;13.662;2023-07-30T22:41:23;3.63;;;1.77;;
31906;SDS011;18455;50.858;13.662;2023-07-30T22:46:23;2.55;;;1.60;;
31906;SDS011;18455;50.858;13.662;2023-07-30T22:51:23;5.20;;;1.75;;
31906;SDS011;18455;50.858;13.662;2023-07-30T22:56:24;5.50;;;1.80;;
31906;SDS011;18455;50.858;13.662;2023-07-30T23:01:24;5.15;;;1.75;;
31906;SDS011;18455;50.858;13.662;2023-07-30T23:06:25;6.40;;;1.30;;
31906;SDS011;18455;50.858;13.662;2023-07-30T23:11:26;6.30;;;1.98;;
31906;SDS011;18455;50.858;13.662;2023-07-30T23:16:26;4.57;;;1.50;;
31906;SDS011;18455;50.858;13.662;2023-07-30T23:21:26;6.18;;;1.80;;
31906;SDS011;18455;50.858;13.662;2023-07-30T23:26:27;3.83;;;1.80;;
31906;SDS011;18455;50.858;13.662;2023-07-30T23:31:27;3.60;;;1.58;;
31906;SDS011;18455;50.858;13.662;2023-07-30T23:36:28;7.32;;;2.00;;
31906;SDS011;18455;50.858;13.662;2023-07-30T23:41:28;5.28;;;1.98;;
31906;SDS011;18455;50.858;13.662;2023-07-30T23:46:28;6.72;;;1.63;;
31906;SDS011;18455;50.858;13.662;2023-07-30T23:51:29;7.65;;;1.88;;
31906;SDS011;18455;50.858;13.662;2023-07-30T23:56:30;7.88;;;1.85;;
